Terminal Aerodrome Forecast
Issued by NWS

Home | Current Version | Previous Version | Text Only | Print | Product List | Glossary On
Versions: 1 2 3 4 5 6 7 8 9 10 11 12 13 14 15 16 17 18 19 20
196
FTUS41 KPBZ 192021 AAA
TAFAGC
TAF AMD
KAGC 192021Z 1920/2018 23010G20KT P6SM VCTS BKN040CB
      TEMPO 1920/1922 32020G35KT 2SM TSRA BKN025CB
     FM192300 28005KT P6SM SCT040
     FM201000 00000KT 5SM BR SCT008
     FM201400 VRB04KT P6SM SKC=

USA.gov is the U.S. government's official web portal to all federal, state and local government web resources and services.